Normandy — WDI3305 — position and weather

sailwx.info

Track history (hours):
 
Tides and Currents Weather Stations Pressure Air Temp Water Temp Dewpoint Dewpoint Depression Visibility Wind Speed Wind Dir Waves Ship Positions

Normandy

Owner: Metropolitan Marine Transportation, Inc., Staten Island, NY. More information available from US FCC via Universal Licensing System and Coast Guard Vessel Documentation Center.

Last reported at 2018-Apr-26 17:40 UTC. Time now 2018-Apr-26 23:02 UTC.
Position N 40°36' W 074°12'.

Length 28 m.

Type: Towing. MMSI: 367686940.

Date/timePositionNaut miles runAvg speedWind from/ knotsBaromVisibWave heightAir tempDewpointWater temp
2018-Apr-26 17:40N 40°36' W 074°12'2 8.2
2018-Apr-26 17:27N 40°38' W 074°12'3 6.6
2018-Apr-26 17:00N 40°38' W 074°08'0 0.0
2018-Apr-26 16:30N 40°38' W 074°08'0 0.0
2018-Apr-26 16:00N 40°38' W 074°08'0 0.0
2018-Apr-26 15:30N 40°38' W 074°08'0 0.0
2018-Apr-26 14:59N 40°38' W 074°08'0 0.0
2018-Apr-26 14:30N 40°38' W 074°08'0 0.0
2018-Apr-26 14:00N 40°38' W 074°08'0 0.0
2018-Apr-26 13:29N 40°38' W 074°08'0 0.0
2018-Apr-26 13:00N 40°38' W 074°08'0 0.0
2018-Apr-26 12:30N 40°38' W 074°08'0 0.0
2018-Apr-26 11:59N 40°38' W 074°08'0 0.0
2018-Apr-26 11:30N 40°38' W 074°08'0 0.0
2018-Apr-26 11:00N 40°38' W 074°08'0 0.0
2018-Apr-26 10:30N 40°38' W 074°08'1 2.5
2018-Apr-26 10:00N 40°38' W 074°09'1 1.1
2018-Apr-26 09:30N 40°38' W 074°09'1 1.4
2018-Apr-26 09:00N 40°39' W 074°08'0 0.0
2018-Apr-26 08:30N 40°39' W 074°08'0 0.0
2018-Apr-26 08:00N 40°39' W 074°08'3 6.0
2018-Apr-26 07:30N 40°38' W 074°12'1 0.0
2018-Apr-25 06:22N 40°39' W 074°11'5 8.1
2018-Apr-25 05:48N 40°39' W 074°05'2 6.2
2018-Apr-25 05:30N 40°38' W 074°04'0 0.4
2018-Apr-25 05:00N 40°38' W 074°04'2 4.0
2018-Apr-25 04:30N 40°39' W 074°06'0 0.0
2018-Apr-25 04:00N 40°39' W 074°06'0 0.0
2018-Apr-25 03:30N 40°39' W 074°06'2 0.6
2018-Apr-25 00:46N 40°39' W 074°08'0 0.0
2018-Apr-25 00:12N 40°39' W 074°08'0 0.0
2018-Apr-24 23:55N 40°39' W 074°08'0 0.0
2018-Apr-24 23:23N 40°39' W 074°08'0 0.0
2018-Apr-24 22:59N 40°39' W 074°08'0 0.0
2018-Apr-24 21:58N 40°39' W 074°08'0 0.0
2018-Apr-24 21:24N 40°39' W 074°08'0 0.0
2018-Apr-24 20:58N 40°39' W 074°08'0 0.0
2018-Apr-24 20:09N 40°39' W 074°08'0 0.0
2018-Apr-24 17:55N 40°39' W 074°08'0 0.0
2018-Apr-24 15:10N 40°39' W 074°08'0 0.0
2018-Apr-24 14:54N 40°39' W 074°08'0 0.0
2018-Apr-24 14:30N 40°39' W 074°08'1 1.4
2018-Apr-24 14:00N 40°39' W 074°07'0 0.0
2018-Apr-24 13:30N 40°39' W 074°07'0 0.0
2018-Apr-24 12:59N 40°39' W 074°07'2 3.4
2018-Apr-24 12:30N 40°39' W 074°05'1 1.8
2018-Apr-24 12:00N 40°40' W 074°04'0 0.0
2018-Apr-24 11:30N 40°40' W 074°04'0 0.0
2018-Apr-24 11:00N 40°40' W 074°04'0 0.0
2018-Apr-24 10:30N 40°40' W 074°04'0 0.0
2018-Apr-24 10:00N 40°40' W 074°04'0 0.0
2018-Apr-24 09:29N 40°40' W 074°04'0 0.0
2018-Apr-24 09:00N 40°40' W 074°04'0 0.0
2018-Apr-24 08:30N 40°40' W 074°04'0 0.0
2018-Apr-24 08:00N 40°40' W 074°04'0 0.0
2018-Apr-24 07:30N 40°40' W 074°04'0 0.0
2018-Apr-24 07:00N 40°40' W 074°04'2 4.1
2018-Apr-24 06:27N 40°38' W 074°04'0 0.2
2018-Apr-24 06:00N 40°38' W 074°04'0 0.7
2018-Apr-24 05:30N 40°38' W 074°04'1 1.4
2018-Apr-24 05:00N 40°39' W 074°04'1 2.5
2018-Apr-24 04:30N 40°40' W 074°04'0 0.0
2018-Apr-24 04:00N 40°40' W 074°04'0 0.0
2018-Apr-24 03:30N 40°40' W 074°04'0 0.0
2018-Apr-24 03:00N 40°40' W 074°04'0 0.0
2018-Apr-24 02:30N 40°40' W 074°04'0 0.0
2018-Apr-24 02:00N 40°40' W 074°04'0 0.0
2018-Apr-24 01:30N 40°40' W 074°04'0 0.0
2018-Apr-24 01:00N 40°40' W 074°04'0 0.0
2018-Apr-24 00:30N 40°40' W 074°04'0 0.0
2018-Apr-24 00:00N 40°40' W 074°04'0 0.0
2018-Apr-23 23:30N 40°40' W 074°04'0 0.0
2018-Apr-23 23:00N 40°40' W 074°04'0 0.0
2018-Apr-23 22:30N 40°40' W 074°04'3 5.8
2018-Apr-23 22:00N 40°41' W 074°01'4 8.7
2018-Apr-23 21:30N 40°45' W 073°58'1 0.2
2018-Apr-23 18:48N 40°45' W 073°57'3 8.7
2018-Apr-23 18:29N 40°43' W 073°58'4 8.9
2018-Apr-23 18:00N 40°40' W 074°03'1 2.3
2018-Apr-23 17:30N 40°40' W 074°04'0 0.0
2018-Apr-23 17:00N 40°40' W 074°04'0 0.0
2018-Apr-23 16:30N 40°40' W 074°04'0 0.0
2018-Apr-23 16:00N 40°40' W 074°04'0 0.0
2018-Apr-23 15:29N 40°40' W 074°04'0 0.0
2018-Apr-23 14:59N 40°40' W 074°04'1 2.1
2018-Apr-23 14:29N 40°39' W 074°05'0 0.0
2018-Apr-23 13:58N 40°39' W 074°05'1 2.4
2018-Apr-23 13:30N 40°39' W 074°04'3 1.0
2018-Apr-23 10:30N 40°39' W 074°08'0 0.0
2018-Apr-23 10:00N 40°39' W 074°08'0 0.3
2018-Apr-23 09:00N 40°39' W 074°08'4 0.2
2018-Apr-22 09:37N 40°36' W 074°12'0 0.0
2018-Apr-22 09:30N 40°36' W 074°12'0 0.0
2018-Apr-22 09:00N 40°36' W 074°12'0 0.0
2018-Apr-22 08:30N 40°36' W 074°12'0 0.5
2018-Apr-22 07:55N 40°35' W 074°12'0 1.1
2018-Apr-22 07:30N 40°36' W 074°12'0 0.4
2018-Apr-22 07:00N 40°36' W 074°12'0 0.0
2018-Apr-22 02:50N 40°36' W 074°12'1 1.9
2018-Apr-22 02:30N 40°36' W 074°12'0 0.4
2018-Apr-22 02:00N 40°37' W 074°12'0 0.6
2018-Apr-22 01:29N 40°36' W 074°12'0 0.1
2018-Apr-22 01:00N 40°36' W 074°12'0 0.0
2018-Apr-22 00:30N 40°36' W 074°12'0 0.0
2018-Apr-21 23:59N 40°36' W 074°12'1 1.5
2018-Apr-21 23:30N 40°36' W 074°12'0 0.0
2018-Apr-21 23:00N 40°36' W 074°12'0 0.0
2018-Apr-21 22:30N 40°36' W 074°12'0 0.0
2018-Apr-21 22:00N 40°36' W 074°12'0 0.0
2018-Apr-21 21:30N 40°36' W 074°12'0 0.0
2018-Apr-21 21:00N 40°36' W 074°12'0 0.0
2018-Apr-21 20:30N 40°36' W 074°12'0 0.0
2018-Apr-21 20:00N 40°36' W 074°12'2 3.7
2018-Apr-21 19:30N 40°38' W 074°12'0 0.7
2018-Apr-21 18:58N 40°38' W 074°12'0 0.4
2018-Apr-21 18:30N 40°38' W 074°12'3 5.1
2018-Apr-21 18:00N 40°39' W 074°09'2 3.5
2018-Apr-21 17:30N 40°39' W 074°07'0 0.1
2018-Apr-21 17:00N 40°39' W 074°07'0 0.9
2018-Apr-21 16:30N 40°39' W 074°07'1 1.2
2018-Apr-21 16:00N 40°39' W 074°08'0 0.0
2018-Apr-21 15:29N 40°39' W 074°08'0 0.0
2018-Apr-21 15:00N 40°39' W 074°08'0 0.0
2018-Apr-21 14:29N 40°39' W 074°08'0 0.0
2018-Apr-21 14:00N 40°39' W 074°08'0 0.0
2018-Apr-21 13:30N 40°39' W 074°08'0 0.0
2018-Apr-21 13:00N 40°39' W 074°08'0 0.0
2018-Apr-21 12:30N 40°39' W 074°08'0 0.0
2018-Apr-21 12:00N 40°39' W 074°08'0 0.0
2018-Apr-21 11:29N 40°39' W 074°08'0 0.0
2018-Apr-21 11:00N 40°39' W 074°08'0 0.0
2018-Apr-21 10:30N 40°39' W 074°08'2 3.8
2018-Apr-21 10:00N 40°39' W 074°10'3 6.5
2018-Apr-21 09:30N 40°36' W 074°12'0 0.0
2018-Apr-21 09:00N 40°36' W 074°12'0 0.0
2018-Apr-21 08:30N 40°36' W 074°12'0 0.0
2018-Apr-21 08:00N 40°36' W 074°12'0 0.0
2018-Apr-21 07:30N 40°36' W 074°12'0 0.0
2018-Apr-21 07:00N 40°36' W 074°12'0 0.0
2018-Apr-21 06:30N 40°36' W 074°12'0 0.0
2018-Apr-21 05:59N 40°36' W 074°12'0 0.0
2018-Apr-21 05:29N 40°36' W 074°12'0 0.0
2018-Apr-21 04:58N 40°36' W 074°12'0 0.0
2018-Apr-21 04:14N 40°36' W 074°12'0 0.0
2018-Apr-21 03:57N 40°36' W 074°12'0 0.0
2018-Apr-21 03:30N 40°36' W 074°12'0 0.6
2018-Apr-21 03:00N 40°36' W 074°12'0 0.6
2018-Apr-21 02:30N 40°36' W 074°12'0 0.0
2018-Apr-21 02:00N 40°36' W 074°12'0 0.0
2018-Apr-21 01:30N 40°36' W 074°12'0 0.0
2018-Apr-21 01:00N 40°36' W 074°12'2 3.1
2018-Apr-21 00:30N 40°37' W 074°12'2 4.4
2018-Apr-21 00:00N 40°38' W 074°10'4 7.4
2018-Apr-20 23:30N 40°39' W 074°05'0 0.0
2018-Apr-20 23:00N 40°39' W 074°05'1 1.5
2018-Apr-20 22:30N 40°39' W 074°04'2 4.2
2018-Apr-20 22:00N 40°39' W 074°07'1 1.7
2018-Apr-20 21:30N 40°38' W 074°08'0 0.0
2018-Apr-20 21:00N 40°38' W 074°08'0 0.0
2018-Apr-20 20:30N 40°38' W 074°08'2 4.6
2018-Apr-20 20:00N 40°39' W 074°05'5 9.7
2018-Apr-20 19:30N 40°42' W 073°60'510.6
2018-Apr-20 19:00N 40°47' W 073°56'2 4.4
2018-Apr-20 18:30N 40°48' W 073°54'1 1.7
2018-Apr-20 17:59N 40°47' W 073°55'4 8.9
2018-Apr-20 17:30N 40°44' W 073°58'4 9.0
2018-Apr-20 17:00N 40°41' W 074°02'1 2.6
2018-Apr-20 16:30N 40°39' W 074°03'1 2.4
2018-Apr-20 16:00N 40°40' W 074°04'0 0.0
2018-Apr-20 15:30N 40°40' W 074°04'0 0.0
2018-Apr-20 15:00N 40°40' W 074°04'0 0.0
2018-Apr-20 14:30N 40°40' W 074°04'0 0.0
2018-Apr-20 14:00N 40°40' W 074°04'0 0.7
2018-Apr-20 13:30N 40°40' W 074°04'0 0.3
2018-Apr-20 13:00N 40°40' W 074°04'1 2.2
2018-Apr-20 12:30N 40°39' W 074°05'3 6.1
2018-Apr-20 11:59N 40°39' W 074°10'3 5.4
2018-Apr-20 11:30N 40°37' W 074°12'3 5.7
2018-Apr-20 10:59N 40°34' W 074°13'2 5.0
2018-Apr-20 10:30N 40°33' W 074°15'0 0.0
2018-Apr-20 10:00N 40°33' W 074°15'1 2.2
2018-Apr-20 09:30N 40°33' W 074°14'0 0.0
2018-Apr-20 08:59N 40°33' W 074°14'0 0.0
2018-Apr-20 08:30N 40°33' W 074°14'0 0.0
2018-Apr-20 07:43N 40°33' W 074°14'0 0.0
2018-Apr-20 07:18N 40°33' W 074°14'0 0.0
2018-Apr-20 06:57N 40°33' W 074°14'0 0.0
2018-Apr-20 06:30N 40°33' W 074°14'0 0.0
2018-Apr-20 05:57N 40°33' W 074°14'0 0.0
2018-Apr-20 05:30N 40°33' W 074°14'0 0.0
2018-Apr-20 05:00N 40°33' W 074°14'0 0.0
2018-Apr-20 04:30N 40°33' W 074°14'0 0.0
2018-Apr-20 03:59N 40°33' W 074°14'1 2.5
2018-Apr-20 03:29N 40°32' W 074°15'0 0.1
2018-Apr-20 02:48N 40°32' W 074°15'1 4.1
2018-Apr-20 02:30N 40°34' W 074°14'0 0.0
2018-Apr-20 01:59N 40°34' W 074°14'0 0.0
2018-Apr-20 01:24N 40°34' W 074°14'0 0.2
2018-Apr-20 01:00N 40°33' W 074°14'0 0.1
2018-Apr-20 00:20N 40°34' W 074°14'0 0.0
2018-Apr-19 21:16N 40°33' W 074°14'2 7.9
2018-Apr-19 20:59N 40°35' W 074°12'1 2.4
2018-Apr-19 20:30N 40°36' W 074°12'0 0.0
2018-Apr-19 20:00N 40°36' W 074°12'1 1.4
2018-Apr-19 19:30N 40°36' W 074°12'0 0.0
2018-Apr-19 19:00N 40°36' W 074°12'0 0.0
2018-Apr-19 18:30N 40°36' W 074°12'0 0.0
2018-Apr-19 17:59N 40°36' W 074°12'0 0.0
2018-Apr-19 17:30N 40°36' W 074°12'0 0.0
2018-Apr-19 16:56N 40°36' W 074°12'0 0.0
2018-Apr-19 16:29N 40°36' W 074°12'0 0.0
2018-Apr-19 15:39N 40°36' W 074°12'0 0.4
2018-Apr-19 15:19N 40°36' W 074°12'2 1.6
2018-Apr-19 14:14N 40°34' W 074°13'2 6.5
2018-Apr-19 13:57N 40°36' W 074°12'0 0.0
2018-Apr-19 13:30N 40°36' W 074°12'0 0.0
2018-Apr-19 12:59N 40°36' W 074°12'0 0.0
2018-Apr-19 12:30N 40°36' W 074°12'0 0.0
2018-Apr-19 11:57N 40°36' W 074°12'0 0.0
2018-Apr-19 11:30N 40°36' W 074°12'0 0.0
2018-Apr-19 11:00N 40°36' W 074°12'0 0.0
2018-Apr-19 10:30N 40°36' W 074°12'0 0.0
2018-Apr-19 10:00N 40°36' W 074°12'0 0.0
2018-Apr-19 09:30N 40°36' W 074°12'0 0.0
2018-Apr-19 09:00N 40°36' W 074°12'0 0.0
2018-Apr-19 08:30N 40°36' W 074°12'0 0.0
2018-Apr-19 08:00N 40°36' W 074°12'0 0.0
2018-Apr-19 07:30N 40°36' W 074°12'0 0.6
2018-Apr-19 06:42N 40°36' W 074°12'0 0.1
2018-Apr-19 05:17N 40°36' W 074°12'2 8.2
2018-Apr-19 04:59N 40°39' W 074°11'4 7.5
2018-Apr-19 04:30N 40°39' W 074°07'0 0.0
2018-Apr-19 04:00N 40°39' W 074°07'0 0.6
2018-Apr-19 03:30N 40°39' W 074°06'0 0.2
2018-Apr-19 03:00N 40°39' W 074°06'0 0.2
2018-Apr-19 02:30N 40°39' W 074°06'4 8.3
2018-Apr-19 02:00N 40°38' W 074°12'3 1.7
2018-Apr-19 00:20N 40°35' W 074°12'4 1.7
2018-Apr-18 22:14N 40°33' W 074°15'0 0.0
2018-Apr-18 21:58N 40°33' W 074°15'3 6.4
2018-Apr-18 21:30N 40°35' W 074°13'4 8.2
2018-Apr-18 21:00N 40°39' W 074°11'1 1.4
2018-Apr-18 20:30N 40°39' W 074°10'0 0.0
2018-Apr-18 20:00N 40°39' W 074°10'2 2.0
2018-Apr-18 19:15N 40°39' W 074°08'0 0.0
2018-Apr-18 19:00N 40°39' W 074°08'0 0.0
2018-Apr-18 18:27N 40°39' W 074°08'0 0.0
2018-Apr-18 17:36N 40°39' W 074°08'0 0.0
2018-Apr-18 17:29N 40°39' W 074°08'0 0.0
2018-Apr-18 17:00N 40°39' W 074°08'0 0.0
2018-Apr-18 16:28N 40°39' W 074°08'0 0.0
2018-Apr-18 16:00N 40°39' W 074°08'0 0.0
2018-Apr-18 15:30N 40°39' W 074°08'0 0.0
2018-Apr-18 15:00N 40°39' W 074°08'0 0.0
2018-Apr-18 14:30N 40°39' W 074°08'0 0.0
2018-Apr-18 14:00N 40°39' W 074°08'0 0.0
2018-Apr-18 13:30N 40°39' W 074°08'0 0.0
2018-Apr-18 13:00N 40°39' W 074°08'0 0.0
2018-Apr-18 12:29N 40°39' W 074°08'0 0.0
2018-Apr-18 12:00N 40°39' W 074°08'0 0.0
2018-Apr-18 11:30N 40°39' W 074°08'0 0.0
2018-Apr-18 11:00N 40°39' W 074°08'0 0.0
2018-Apr-18 10:29N 40°39' W 074°08'0 0.0
2018-Apr-18 10:00N 40°39' W 074°08'0 0.0
2018-Apr-18 09:29N 40°39' W 074°08'0 0.0
2018-Apr-18 09:00N 40°39' W 074°08'0 0.0
2018-Apr-18 08:30N 40°39' W 074°08'0 0.0
2018-Apr-18 07:59N 40°39' W 074°08'0 0.0
2018-Apr-18 07:30N 40°39' W 074°08'0 0.0
2018-Apr-18 07:00N 40°39' W 074°08'0 0.0
2018-Apr-18 06:30N 40°39' W 074°08'0 0.0
2018-Apr-18 06:00N 40°39' W 074°08'0 0.0
2018-Apr-18 05:30N 40°39' W 074°08'1 2.5
2018-Apr-18 04:59N 40°39' W 074°10'3 6.8
2018-Apr-18 04:30N 40°36' W 074°12'4 7.4
2018-Apr-18 03:59N 40°33' W 074°15'2 3.0
2018-Apr-18 03:28N 40°31' W 074°15'3 4.3
2018-Apr-18 02:42N 40°34' W 074°13'2 7.7
2018-Apr-18 02:29N 40°36' W 074°12'3 6.5
2018-Apr-18 02:00N 40°39' W 074°11'3 6.5
2018-Apr-18 01:30N 40°39' W 074°07'1 2.2
2018-Apr-18 01:00N 40°39' W 074°08'0 0.0
2018-Apr-18 00:30N 40°39' W 074°08'0 0.0
2018-Apr-18 00:00N 40°39' W 074°08'0 0.0
2018-Apr-17 23:30N 40°39' W 074°08'0 0.2
2018-Apr-17 23:00N 40°39' W 074°08'3 6.3
2018-Apr-17 22:27N 40°38' W 074°12'0 0.6
2018-Apr-17 22:00N 40°38' W 074°12'0 0.2
2018-Apr-17 21:27N 40°38' W 074°12'0 0.0
2018-Apr-17 20:58N 40°38' W 074°12'3 5.5
2018-Apr-17 20:30N 40°39' W 074°09'2 3.1
2018-Apr-17 20:00N 40°39' W 074°07'0 0.6
2018-Apr-17 19:30N 40°39' W 074°07'1 2.1
2018-Apr-17 19:00N 40°39' W 074°08'0 0.0
2018-Apr-17 18:30N 40°39' W 074°08'0 0.0
2018-Apr-17 18:00N 40°39' W 074°08'0 0.0
2018-Apr-17 17:30N 40°39' W 074°08'0 0.0
2018-Apr-17 16:58N 40°39' W 074°08'0 0.0
2018-Apr-17 16:30N 40°39' W 074°08'2 3.3
2018-Apr-17 16:00N 40°39' W 074°06'1 1.9
2018-Apr-17 15:30N 40°39' W 074°07'1 1.3
2018-Apr-17 15:00N 40°39' W 074°08'0 0.0
2018-Apr-17 14:30N 40°39' W 074°08'0 0.0
2018-Apr-17 13:53N 40°39' W 074°08'0 0.0
2018-Apr-17 13:30N 40°39' W 074°08'0 0.0
2018-Apr-17 13:00N 40°39' W 074°08'0 0.0
2018-Apr-17 12:30N 40°39' W 074°08'0 0.0
2018-Apr-17 12:00N 40°39' W 074°08'0 0.0
2018-Apr-17 11:30N 40°39' W 074°08'0 0.0
2018-Apr-17 11:00N 40°39' W 074°08'0 0.0
2018-Apr-17 10:30N 40°39' W 074°08'0 0.0
2018-Apr-17 10:00N 40°39' W 074°08'0 0.0
2018-Apr-17 09:30N 40°39' W 074°08'1 3.0
2018-Apr-17 09:00N 40°39' W 074°06'1 1.4
2018-Apr-17 08:30N 40°39' W 074°05'2 4.1
2018-Apr-17 07:58N 40°39' W 074°08'0 0.0
2018-Apr-17 06:47N 40°39' W 074°08'0 1.3
2018-Apr-17 06:30N 40°39' W 074°07'2 4.1
2018-Apr-17 06:00N 40°39' W 074°05'0 0.4
2018-Apr-17 05:30N 40°39' W 074°05'0 0.0
2018-Apr-17 05:00N 40°39' W 074°05'0 0.0
2018-Apr-17 04:30N 40°39' W 074°05'0 0.0
2018-Apr-17 04:00N 40°39' W 074°05'0 0.0
2018-Apr-17 03:30N 40°39' W 074°05'0 0.0
2018-Apr-17 03:00N 40°39' W 074°05'0 0.0
2018-Apr-17 02:30N 40°39' W 074°05'0 0.0
2018-Apr-17 02:00N 40°39' W 074°05'0 0.0
2018-Apr-17 01:30N 40°39' W 074°05'0 0.0
2018-Apr-17 01:00N 40°39' W 074°05'0 0.0
2018-Apr-17 00:30N 40°39' W 074°05'0 0.0
2018-Apr-17 00:00N 40°39' W 074°05'0 0.0
2018-Apr-16 23:30N 40°39' W 074°05'0 0.0
2018-Apr-16 23:00N 40°39' W 074°05'0 0.0
2018-Apr-16 22:30N 40°39' W 074°05'2 4.4
2018-Apr-16 22:00N 40°39' W 074°08'0 0.0
2018-Apr-16 21:30N 40°39' W 074°08'0 0.0
2018-Apr-16 21:00N 40°39' W 074°08'1 1.8
2018-Apr-16 20:30N 40°39' W 074°09'3 5.5
2018-Apr-16 20:00N 40°37' W 074°12'4 7.0
2018-Apr-16 19:29N 40°33' W 074°13'0 0.1
2018-Apr-16 18:49N 40°33' W 074°13'3 8.2
2018-Apr-16 18:28N 40°36' W 074°12'3 6.8
2018-Apr-16 18:00N 40°39' W 074°10'  
Track history (hours):
 
Tides and Currents Weather Stations Pressure Air Temp Water Temp Dewpoint Dewpoint Depression Visibility Wind Speed Wind Dir Waves Ship Positions

Normandy

Owner: Metropolitan Marine Transportation, Inc., Staten Island, NY. More information available from US FCC via Universal Licensing System and Coast Guard Vessel Documentation Center.

Last reported at 2018-Apr-26 17:40 UTC. Time now 2018-Apr-26 23:02 UTC.
Position N 40°36' W 074°12'.

Length 28 m.

Type: Towing. MMSI: 367686940.

Date/timePositionNaut miles runAvg speedWind from/ knotsBaromVisibWave heightAir tempDewpointWater temp
2018-Apr-26 17:40N 40°36' W 074°12'2 8.2
2018-Apr-26 17:27N 40°38' W 074°12'3 6.6
2018-Apr-26 17:00N 40°38' W 074°08'0 0.0
2018-Apr-26 16:30N 40°38' W 074°08'0 0.0
2018-Apr-26 16:00N 40°38' W 074°08'0 0.0
2018-Apr-26 15:30N 40°38' W 074°08'0 0.0
2018-Apr-26 14:59N 40°38' W 074°08'0 0.0
2018-Apr-26 14:30N 40°38' W 074°08'0 0.0
2018-Apr-26 14:00N 40°38' W 074°08'0 0.0
2018-Apr-26 13:29N 40°38' W 074°08'0 0.0
2018-Apr-26 13:00N 40°38' W 074°08'0 0.0
2018-Apr-26 12:30N 40°38' W 074°08'0 0.0
2018-Apr-26 11:59N 40°38' W 074°08'0 0.0
2018-Apr-26 11:30N 40°38' W 074°08'0 0.0
2018-Apr-26 11:00N 40°38' W 074°08'0 0.0
2018-Apr-26 10:30N 40°38' W 074°08'1 2.5
2018-Apr-26 10:00N 40°38' W 074°09'1 1.1
2018-Apr-26 09:30N 40°38' W 074°09'1 1.4
2018-Apr-26 09:00N 40°39' W 074°08'0 0.0
2018-Apr-26 08:30N 40°39' W 074°08'0 0.0
2018-Apr-26 08:00N 40°39' W 074°08'3 6.0
2018-Apr-26 07:30N 40°38' W 074°12'1 0.0
2018-Apr-25 06:22N 40°39' W 074°11'5 8.1
2018-Apr-25 05:48N 40°39' W 074°05'2 6.2
2018-Apr-25 05:30N 40°38' W 074°04'0 0.4
2018-Apr-25 05:00N 40°38' W 074°04'2 4.0
2018-Apr-25 04:30N 40°39' W 074°06'0 0.0
2018-Apr-25 04:00N 40°39' W 074°06'0 0.0
2018-Apr-25 03:30N 40°39' W 074°06'2 0.6
2018-Apr-25 00:46N 40°39' W 074°08'0 0.0
2018-Apr-25 00:12N 40°39' W 074°08'0 0.0
2018-Apr-24 23:55N 40°39' W 074°08'0 0.0
2018-Apr-24 23:23N 40°39' W 074°08'0 0.0
2018-Apr-24 22:59N 40°39' W 074°08'0 0.0
2018-Apr-24 21:58N 40°39' W 074°08'0 0.0
2018-Apr-24 21:24N 40°39' W 074°08'0 0.0
2018-Apr-24 20:58N 40°39' W 074°08'0 0.0
2018-Apr-24 20:09N 40°39' W 074°08'0 0.0
2018-Apr-24 17:55N 40°39' W 074°08'0 0.0
2018-Apr-24 15:10N 40°39' W 074°08'0 0.0
2018-Apr-24 14:54N 40°39' W 074°08'0 0.0
2018-Apr-24 14:30N 40°39' W 074°08'1 1.4
2018-Apr-24 14:00N 40°39' W 074°07'0 0.0
2018-Apr-24 13:30N 40°39' W 074°07'0 0.0
2018-Apr-24 12:59N 40°39' W 074°07'2 3.4
2018-Apr-24 12:30N 40°39' W 074°05'1 1.8
2018-Apr-24 12:00N 40°40' W 074°04'0 0.0
2018-Apr-24 11:30N 40°40' W 074°04'0 0.0
2018-Apr-24 11:00N 40°40' W 074°04'0 0.0
2018-Apr-24 10:30N 40°40' W 074°04'0 0.0
2018-Apr-24 10:00N 40°40' W 074°04'0 0.0
2018-Apr-24 09:29N 40°40' W 074°04'0 0.0
2018-Apr-24 09:00N 40°40' W 074°04'0 0.0
2018-Apr-24 08:30N 40°40' W 074°04'0 0.0
2018-Apr-24 08:00N 40°40' W 074°04'0 0.0
2018-Apr-24 07:30N 40°40' W 074°04'0 0.0
2018-Apr-24 07:00N 40°40' W 074°04'2 4.1
2018-Apr-24 06:27N 40°38' W 074°04'0 0.2
2018-Apr-24 06:00N 40°38' W 074°04'0 0.7
2018-Apr-24 05:30N 40°38' W 074°04'1 1.4
2018-Apr-24 05:00N 40°39' W 074°04'1 2.5
2018-Apr-24 04:30N 40°40' W 074°04'0 0.0
2018-Apr-24 04:00N 40°40' W 074°04'0 0.0
2018-Apr-24 03:30N 40°40' W 074°04'0 0.0
2018-Apr-24 03:00N 40°40' W 074°04'0 0.0
2018-Apr-24 02:30N 40°40' W 074°04'0 0.0
2018-Apr-24 02:00N 40°40' W 074°04'0 0.0
2018-Apr-24 01:30N 40°40' W 074°04'0 0.0
2018-Apr-24 01:00N 40°40' W 074°04'0 0.0
2018-Apr-24 00:30N 40°40' W 074°04'0 0.0
2018-Apr-24 00:00N 40°40' W 074°04'0 0.0
2018-Apr-23 23:30N 40°40' W 074°04'0 0.0
2018-Apr-23 23:00N 40°40' W 074°04'0 0.0
2018-Apr-23 22:30N 40°40' W 074°04'3 5.8
2018-Apr-23 22:00N 40°41' W 074°01'4 8.7
2018-Apr-23 21:30N 40°45' W 073°58'1 0.2
2018-Apr-23 18:48N 40°45' W 073°57'3 8.7
2018-Apr-23 18:29N 40°43' W 073°58'4 8.9
2018-Apr-23 18:00N 40°40' W 074°03'1 2.3
2018-Apr-23 17:30N 40°40' W 074°04'0 0.0
2018-Apr-23 17:00N 40°40' W 074°04'0 0.0
2018-Apr-23 16:30N 40°40' W 074°04'0 0.0
2018-Apr-23 16:00N 40°40' W 074°04'0 0.0
2018-Apr-23 15:29N 40°40' W 074°04'0 0.0
2018-Apr-23 14:59N 40°40' W 074°04'1 2.1
2018-Apr-23 14:29N 40°39' W 074°05'0 0.0
2018-Apr-23 13:58N 40°39' W 074°05'1 2.4
2018-Apr-23 13:30N 40°39' W 074°04'3 1.0
2018-Apr-23 10:30N 40°39' W 074°08'0 0.0
2018-Apr-23 10:00N 40°39' W 074°08'0 0.3
2018-Apr-23 09:00N 40°39' W 074°08'4 0.2
2018-Apr-22 09:37N 40°36' W 074°12'0 0.0
2018-Apr-22 09:30N 40°36' W 074°12'0 0.0
2018-Apr-22 09:00N 40°36' W 074°12'0 0.0
2018-Apr-22 08:30N 40°36' W 074°12'0 0.5
2018-Apr-22 07:55N 40°35' W 074°12'0 1.1
2018-Apr-22 07:30N 40°36' W 074°12'0 0.4
2018-Apr-22 07:00N 40°36' W 074°12'0 0.0
2018-Apr-22 02:50N 40°36' W 074°12'1 1.9
2018-Apr-22 02:30N 40°36' W 074°12'0 0.4
2018-Apr-22 02:00N 40°37' W 074°12'0 0.6
2018-Apr-22 01:29N 40°36' W 074°12'0 0.1
2018-Apr-22 01:00N 40°36' W 074°12'0 0.0
2018-Apr-22 00:30N 40°36' W 074°12'0 0.0
2018-Apr-21 23:59N 40°36' W 074°12'1 1.5
2018-Apr-21 23:30N 40°36' W 074°12'0 0.0
2018-Apr-21 23:00N 40°36' W 074°12'0 0.0
2018-Apr-21 22:30N 40°36' W 074°12'0 0.0
2018-Apr-21 22:00N 40°36' W 074°12'0 0.0
2018-Apr-21 21:30N 40°36' W 074°12'0 0.0
2018-Apr-21 21:00N 40°36' W 074°12'0 0.0
2018-Apr-21 20:30N 40°36' W 074°12'0 0.0
2018-Apr-21 20:00N 40°36' W 074°12'2 3.7
2018-Apr-21 19:30N 40°38' W 074°12'0 0.7
2018-Apr-21 18:58N 40°38' W 074°12'0 0.4
2018-Apr-21 18:30N 40°38' W 074°12'3 5.1
2018-Apr-21 18:00N 40°39' W 074°09'2 3.5
2018-Apr-21 17:30N 40°39' W 074°07'0 0.1
2018-Apr-21 17:00N 40°39' W 074°07'0 0.9
2018-Apr-21 16:30N 40°39' W 074°07'1 1.2
2018-Apr-21 16:00N 40°39' W 074°08'0 0.0
2018-Apr-21 15:29N 40°39' W 074°08'0 0.0
2018-Apr-21 15:00N 40°39' W 074°08'0 0.0
2018-Apr-21 14:29N 40°39' W 074°08'0 0.0
2018-Apr-21 14:00N 40°39' W 074°08'0 0.0
2018-Apr-21 13:30N 40°39' W 074°08'0 0.0
2018-Apr-21 13:00N 40°39' W 074°08'0 0.0
2018-Apr-21 12:30N 40°39' W 074°08'0 0.0
2018-Apr-21 12:00N 40°39' W 074°08'0 0.0
2018-Apr-21 11:29N 40°39' W 074°08'0 0.0
2018-Apr-21 11:00N 40°39' W 074°08'0 0.0
2018-Apr-21 10:30N 40°39' W 074°08'2 3.8
2018-Apr-21 10:00N 40°39' W 074°10'3 6.5
2018-Apr-21 09:30N 40°36' W 074°12'0 0.0
2018-Apr-21 09:00N 40°36' W 074°12'0 0.0
2018-Apr-21 08:30N 40°36' W 074°12'0 0.0
2018-Apr-21 08:00N 40°36' W 074°12'0 0.0
2018-Apr-21 07:30N 40°36' W 074°12'0 0.0
2018-Apr-21 07:00N 40°36' W 074°12'0 0.0
2018-Apr-21 06:30N 40°36' W 074°12'0 0.0
2018-Apr-21 05:59N 40°36' W 074°12'0 0.0
2018-Apr-21 05:29N 40°36' W 074°12'0 0.0
2018-Apr-21 04:58N 40°36' W 074°12'0 0.0
2018-Apr-21 04:14N 40°36' W 074°12'0 0.0
2018-Apr-21 03:57N 40°36' W 074°12'0 0.0
2018-Apr-21 03:30N 40°36' W 074°12'0 0.6
2018-Apr-21 03:00N 40°36' W 074°12'0 0.6
2018-Apr-21 02:30N 40°36' W 074°12'0 0.0
2018-Apr-21 02:00N 40°36' W 074°12'0 0.0
2018-Apr-21 01:30N 40°36' W 074°12'0 0.0
2018-Apr-21 01:00N 40°36' W 074°12'2 3.1
2018-Apr-21 00:30N 40°37' W 074°12'2 4.4
2018-Apr-21 00:00N 40°38' W 074°10'4 7.4
2018-Apr-20 23:30N 40°39' W 074°05'0 0.0
2018-Apr-20 23:00N 40°39' W 074°05'1 1.5
2018-Apr-20 22:30N 40°39' W 074°04'2 4.2
2018-Apr-20 22:00N 40°39' W 074°07'1 1.7
2018-Apr-20 21:30N 40°38' W 074°08'0 0.0
2018-Apr-20 21:00N 40°38' W 074°08'0 0.0
2018-Apr-20 20:30N 40°38' W 074°08'2 4.6
2018-Apr-20 20:00N 40°39' W 074°05'5 9.7
2018-Apr-20 19:30N 40°42' W 073°60'510.6
2018-Apr-20 19:00N 40°47' W 073°56'2 4.4
2018-Apr-20 18:30N 40°48' W 073°54'1 1.7
2018-Apr-20 17:59N 40°47' W 073°55'4 8.9
2018-Apr-20 17:30N 40°44' W 073°58'4 9.0
2018-Apr-20 17:00N 40°41' W 074°02'1 2.6
2018-Apr-20 16:30N 40°39' W 074°03'1 2.4
2018-Apr-20 16:00N 40°40' W 074°04'0 0.0
2018-Apr-20 15:30N 40°40' W 074°04'0 0.0
2018-Apr-20 15:00N 40°40' W 074°04'0 0.0
2018-Apr-20 14:30N 40°40' W 074°04'0 0.0
2018-Apr-20 14:00N 40°40' W 074°04'0 0.7
2018-Apr-20 13:30N 40°40' W 074°04'0 0.3
2018-Apr-20 13:00N 40°40' W 074°04'1 2.2
2018-Apr-20 12:30N 40°39' W 074°05'3 6.1
2018-Apr-20 11:59N 40°39' W 074°10'3 5.4
2018-Apr-20 11:30N 40°37' W 074°12'3 5.7
2018-Apr-20 10:59N 40°34' W 074°13'2 5.0
2018-Apr-20 10:30N 40°33' W 074°15'0 0.0
2018-Apr-20 10:00N 40°33' W 074°15'1 2.2
2018-Apr-20 09:30N 40°33' W 074°14'0 0.0
2018-Apr-20 08:59N 40°33' W 074°14'0 0.0
2018-Apr-20 08:30N 40°33' W 074°14'0 0.0
2018-Apr-20 07:43N 40°33' W 074°14'0 0.0
2018-Apr-20 07:18N 40°33' W 074°14'0 0.0
2018-Apr-20 06:57N 40°33' W 074°14'0 0.0
2018-Apr-20 06:30N 40°33' W 074°14'0 0.0
2018-Apr-20 05:57N 40°33' W 074°14'0 0.0
2018-Apr-20 05:30N 40°33' W 074°14'0 0.0
2018-Apr-20 05:00N 40°33' W 074°14'0 0.0
2018-Apr-20 04:30N 40°33' W 074°14'0 0.0
2018-Apr-20 03:59N 40°33' W 074°14'1 2.5
2018-Apr-20 03:29N 40°32' W 074°15'0 0.1
2018-Apr-20 02:48N 40°32' W 074°15'1 4.1
2018-Apr-20 02:30N 40°34' W 074°14'0 0.0
2018-Apr-20 01:59N 40°34' W 074°14'0 0.0
2018-Apr-20 01:24N 40°34' W 074°14'0 0.2
2018-Apr-20 01:00N 40°33' W 074°14'0 0.1
2018-Apr-20 00:20N 40°34' W 074°14'0 0.0
2018-Apr-19 21:16N 40°33' W 074°14'2 7.9
2018-Apr-19 20:59N 40°35' W 074°12'1 2.4
2018-Apr-19 20:30N 40°36' W 074°12'0 0.0
2018-Apr-19 20:00N 40°36' W 074°12'1 1.4
2018-Apr-19 19:30N 40°36' W 074°12'0 0.0
2018-Apr-19 19:00N 40°36' W 074°12'0 0.0
2018-Apr-19 18:30N 40°36' W 074°12'0 0.0
2018-Apr-19 17:59N 40°36' W 074°12'0 0.0
2018-Apr-19 17:30N 40°36' W 074°12'0 0.0
2018-Apr-19 16:56N 40°36' W 074°12'0 0.0
2018-Apr-19 16:29N 40°36' W 074°12'0 0.0
2018-Apr-19 15:39N 40°36' W 074°12'0 0.4
2018-Apr-19 15:19N 40°36' W 074°12'2 1.6
2018-Apr-19 14:14N 40°34' W 074°13'2 6.5
2018-Apr-19 13:57N 40°36' W 074°12'0 0.0
2018-Apr-19 13:30N 40°36' W 074°12'0 0.0
2018-Apr-19 12:59N 40°36' W 074°12'0 0.0
2018-Apr-19 12:30N 40°36' W 074°12'0 0.0
2018-Apr-19 11:57N 40°36' W 074°12'0 0.0
2018-Apr-19 11:30N 40°36' W 074°12'0 0.0
2018-Apr-19 11:00N 40°36' W 074°12'0 0.0
2018-Apr-19 10:30N 40°36' W 074°12'0 0.0
2018-Apr-19 10:00N 40°36' W 074°12'0 0.0
2018-Apr-19 09:30N 40°36' W 074°12'0 0.0
2018-Apr-19 09:00N 40°36' W 074°12'0 0.0
2018-Apr-19 08:30N 40°36' W 074°12'0 0.0
2018-Apr-19 08:00N 40°36' W 074°12'0 0.0
2018-Apr-19 07:30N 40°36' W 074°12'0 0.6
2018-Apr-19 06:42N 40°36' W 074°12'0 0.1
2018-Apr-19 05:17N 40°36' W 074°12'2 8.2
2018-Apr-19 04:59N 40°39' W 074°11'4 7.5
2018-Apr-19 04:30N 40°39' W 074°07'0 0.0
2018-Apr-19 04:00N 40°39' W 074°07'0 0.6
2018-Apr-19 03:30N 40°39' W 074°06'0 0.2
2018-Apr-19 03:00N 40°39' W 074°06'0 0.2
2018-Apr-19 02:30N 40°39' W 074°06'4 8.3
2018-Apr-19 02:00N 40°38' W 074°12'3 1.7
2018-Apr-19 00:20N 40°35' W 074°12'4 1.7
2018-Apr-18 22:14N 40°33' W 074°15'0 0.0
2018-Apr-18 21:58N 40°33' W 074°15'3 6.4
2018-Apr-18 21:30N 40°35' W 074°13'4 8.2
2018-Apr-18 21:00N 40°39' W 074°11'1 1.4
2018-Apr-18 20:30N 40°39' W 074°10'0 0.0
2018-Apr-18 20:00N 40°39' W 074°10'2 2.0
2018-Apr-18 19:15N 40°39' W 074°08'0 0.0
2018-Apr-18 19:00N 40°39' W 074°08'0 0.0
2018-Apr-18 18:27N 40°39' W 074°08'0 0.0
2018-Apr-18 17:36N 40°39' W 074°08'0 0.0
2018-Apr-18 17:29N 40°39' W 074°08'0 0.0
2018-Apr-18 17:00N 40°39' W 074°08'0 0.0
2018-Apr-18 16:28N 40°39' W 074°08'0 0.0
2018-Apr-18 16:00N 40°39' W 074°08'0 0.0
2018-Apr-18 15:30N 40°39' W 074°08'0 0.0
2018-Apr-18 15:00N 40°39' W 074°08'0 0.0
2018-Apr-18 14:30N 40°39' W 074°08'0 0.0
2018-Apr-18 14:00N 40°39' W 074°08'0 0.0
2018-Apr-18 13:30N 40°39' W 074°08'0 0.0
2018-Apr-18 13:00N 40°39' W 074°08'0 0.0
2018-Apr-18 12:29N 40°39' W 074°08'0 0.0
2018-Apr-18 12:00N 40°39' W 074°08'0 0.0
2018-Apr-18 11:30N 40°39' W 074°08'0 0.0
2018-Apr-18 11:00N 40°39' W 074°08'0 0.0
2018-Apr-18 10:29N 40°39' W 074°08'0 0.0
2018-Apr-18 10:00N 40°39' W 074°08'0 0.0
2018-Apr-18 09:29N 40°39' W 074°08'0 0.0
2018-Apr-18 09:00N 40°39' W 074°08'0 0.0
2018-Apr-18 08:30N 40°39' W 074°08'0 0.0
2018-Apr-18 07:59N 40°39' W 074°08'0 0.0
2018-Apr-18 07:30N 40°39' W 074°08'0 0.0
2018-Apr-18 07:00N 40°39' W 074°08'0 0.0
2018-Apr-18 06:30N 40°39' W 074°08'0 0.0
2018-Apr-18 06:00N 40°39' W 074°08'0 0.0
2018-Apr-18 05:30N 40°39' W 074°08'1 2.5
2018-Apr-18 04:59N 40°39' W 074°10'3 6.8
2018-Apr-18 04:30N 40°36' W 074°12'4 7.4
2018-Apr-18 03:59N 40°33' W 074°15'2 3.0
2018-Apr-18 03:28N 40°31' W 074°15'3 4.3
2018-Apr-18 02:42N 40°34' W 074°13'2 7.7
2018-Apr-18 02:29N 40°36' W 074°12'3 6.5
2018-Apr-18 02:00N 40°39' W 074°11'3 6.5
2018-Apr-18 01:30N 40°39' W 074°07'1 2.2
2018-Apr-18 01:00N 40°39' W 074°08'0 0.0
2018-Apr-18 00:30N 40°39' W 074°08'0 0.0
2018-Apr-18 00:00N 40°39' W 074°08'0 0.0
2018-Apr-17 23:30N 40°39' W 074°08'0 0.2
2018-Apr-17 23:00N 40°39' W 074°08'3 6.3
2018-Apr-17 22:27N 40°38' W 074°12'0 0.6
2018-Apr-17 22:00N 40°38' W 074°12'0 0.2
2018-Apr-17 21:27N 40°38' W 074°12'0 0.0
2018-Apr-17 20:58N 40°38' W 074°12'3 5.5
2018-Apr-17 20:30N 40°39' W 074°09'2 3.1
2018-Apr-17 20:00N 40°39' W 074°07'0 0.6
2018-Apr-17 19:30N 40°39' W 074°07'1 2.1
2018-Apr-17 19:00N 40°39' W 074°08'0 0.0
2018-Apr-17 18:30N 40°39' W 074°08'0 0.0
2018-Apr-17 18:00N 40°39' W 074°08'0 0.0
2018-Apr-17 17:30N 40°39' W 074°08'0 0.0
2018-Apr-17 16:58N 40°39' W 074°08'0 0.0
2018-Apr-17 16:30N 40°39' W 074°08'2 3.3
2018-Apr-17 16:00N 40°39' W 074°06'1 1.9
2018-Apr-17 15:30N 40°39' W 074°07'1 1.3
2018-Apr-17 15:00N 40°39' W 074°08'0 0.0
2018-Apr-17 14:30N 40°39' W 074°08'0 0.0
2018-Apr-17 13:53N 40°39' W 074°08'0 0.0
2018-Apr-17 13:30N 40°39' W 074°08'0 0.0
2018-Apr-17 13:00N 40°39' W 074°08'0 0.0
2018-Apr-17 12:30N 40°39' W 074°08'0 0.0
2018-Apr-17 12:00N 40°39' W 074°08'0 0.0
2018-Apr-17 11:30N 40°39' W 074°08'0 0.0
2018-Apr-17 11:00N 40°39' W 074°08'0 0.0
2018-Apr-17 10:30N 40°39' W 074°08'0 0.0
2018-Apr-17 10:00N 40°39' W 074°08'0 0.0
2018-Apr-17 09:30N 40°39' W 074°08'1 3.0
2018-Apr-17 09:00N 40°39' W 074°06'1 1.4
2018-Apr-17 08:30N 40°39' W 074°05'2 4.1
2018-Apr-17 07:58N 40°39' W 074°08'0 0.0
2018-Apr-17 06:47N 40°39' W 074°08'0 1.3
2018-Apr-17 06:30N 40°39' W 074°07'2 4.1
2018-Apr-17 06:00N 40°39' W 074°05'0 0.4
2018-Apr-17 05:30N 40°39' W 074°05'0 0.0
2018-Apr-17 05:00N 40°39' W 074°05'0 0.0
2018-Apr-17 04:30N 40°39' W 074°05'0 0.0
2018-Apr-17 04:00N 40°39' W 074°05'0 0.0
2018-Apr-17 03:30N 40°39' W 074°05'0 0.0
2018-Apr-17 03:00N 40°39' W 074°05'0 0.0
2018-Apr-17 02:30N 40°39' W 074°05'0 0.0
2018-Apr-17 02:00N 40°39' W 074°05'0 0.0
2018-Apr-17 01:30N 40°39' W 074°05'0 0.0
2018-Apr-17 01:00N 40°39' W 074°05'0 0.0
2018-Apr-17 00:30N 40°39' W 074°05'0 0.0
2018-Apr-17 00:00N 40°39' W 074°05'0 0.0
2018-Apr-16 23:30N 40°39' W 074°05'0 0.0
2018-Apr-16 23:00N 40°39' W 074°05'0 0.0
2018-Apr-16 22:30N 40°39' W 074°05'2 4.4
2018-Apr-16 22:00N 40°39' W 074°08'0 0.0
2018-Apr-16 21:30N 40°39' W 074°08'0 0.0
2018-Apr-16 21:00N 40°39' W 074°08'1 1.8
2018-Apr-16 20:30N 40°39' W 074°09'3 5.5
2018-Apr-16 20:00N 40°37' W 074°12'4 7.0
2018-Apr-16 19:29N 40°33' W 074°13'0 0.1
2018-Apr-16 18:49N 40°33' W 074°13'3 8.2
2018-Apr-16 18:28N 40°36' W 074°12'3 6.8
2018-Apr-16 18:00N 40°39' W 074°10'  

Dump ship's entire track history